Time;durP1;ratioP1;P1;durP2;ratioP2;P2;SDS_P1;SDS_P2;PMS_P1;PMS_P2;Temp;Humidity;BMP_temperature;BMP_pressure;BME280_temperature;BME280_humidity;BME280_pressure;Samples;Min_cycle;Max_cycle;Signal;HPM_P1;HPM_P2
2021/01/07 00:02:22;;;;;;;1.70;1.48;;;;;;;;;;5051079;28;20094;-72
2021/01/07 00:04:48;;;;;;;1.42;1.33;;;;;;;;;;5049913;28;20040;-72
2021/01/07 00:07:14;;;;;;;1.67;1.13;;;;;;;;;;5050721;28;20430;-72
2021/01/07 00:09:40;;;;;;;1.17;1.08;;;;;;;;;;5050116;28;20025;-72
2021/01/07 00:12:06;;;;;;;1.30;1.10;;;;;;;;;;5050824;28;20032;-72
2021/01/07 00:14:32;;;;;;;1.67;1.55;;;;;;;;;;5050598;28;20032;-72
2021/01/07 00:16:58;;;;;;;1.83;1.48;;;;;;;;;;5050277;28;20044;-72
2021/01/07 00:19:24;;;;;;;1.42;1.20;;;;;;;;;;5050779;28;20036;-72
2021/01/07 00:21:50;;;;;;;0.90;0.90;;;;;;;;;;5050005;28;20146;-72
2021/01/07 00:24:16;;;;;;;1.70;1.00;;;;;;;;;;5050706;28;20033;-71
2021/01/07 00:26:43;;;;;;;1.60;1.23;;;;;;;;;;5049508;28;20045;-72
2021/01/07 00:29:09;;;;;;;1.65;1.00;;;;;;;;;;5050813;28;20108;-72
2021/01/07 00:31:35;;;;;;;1.73;0.90;;;;;;;;;;5050410;28;20064;-72
2021/01/07 00:34:01;;;;;;;0.95;0.93;;;;;;;;;;5050049;28;20033;-72
2021/01/07 00:36:27;;;;;;;2.40;1.90;;;;;;;;;;5038987;28;20050;-72
2021/01/07 00:38:53;;;;;;;1.60;1.40;;;;;;;;;;5029858;28;20044;-72
2021/01/07 00:41:20;;;;;;;1.30;1.20;;;;;;;;;;5030485;28;20021;-72
2021/01/07 00:43:47;;;;;;;1.23;1.00;;;;;;;;;;5029306;28;20091;-72
2021/01/07 00:46:14;;;;;;;1.58;1.00;;;;;;;;;;5030126;28;20049;-73
2021/01/07 00:48:40;;;;;;;1.33;1.23;;;;;;;;;;5029865;28;20104;-73
2021/01/07 00:51:07;;;;;;;0.93;0.82;;;;;;;;;;5030588;28;20053;-72
2021/01/07 00:53:33;;;;;;;1.40;1.13;;;;;;;;;;5029670;28;20147;-72
2021/01/07 00:55:59;;;;;;;2.45;1.38;;;;;;;;;;5030031;28;20018;-72
2021/01/07 00:58:25;;;;;;;1.10;1.00;;;;;;;;;;5030154;28;20033;-72
2021/01/07 01:00:51;;;;;;;1.23;0.90;;;;;;;;;;5028463;28;20128;-72
2021/01/07 01:03:21;;;;;;;1.95;1.20;;;;;;;;;;5029614;28;20029;-72
2021/01/07 01:05:47;;;;;;;1.08;0.80;;;;;;;;;;5028914;28;20564;-72
2021/01/07 01:08:13;;;;;;;1.13;0.85;;;;;;;;;;5030363;28;20036;-72
2021/01/07 01:10:39;;;;;;;1.02;1.02;;;;;;;;;;5029505;28;20029;-72
2021/01/07 01:13:05;;;;;;;1.08;0.95;;;;;;;;;;5029755;28;20030;-72
2021/01/07 01:15:31;;;;;;;1.23;1.00;;;;;;;;;;5029618;28;20077;-72
2021/01/07 01:17:57;;;;;;;1.33;1.23;;;;;;;;;;5029387;28;20779;-72
2021/01/07 01:20:23;;;;;;;1.30;0.98;;;;;;;;;;5030044;28;20100;-72
2021/01/07 01:22:49;;;;;;;0.82;0.82;;;;;;;;;;5028759;28;20029;-72
2021/01/07 01:25:16;;;;;;;1.60;1.33;;;;;;;;;;5029781;28;20056;-72
2021/01/07 01:27:43;;;;;;;0.90;0.90;;;;;;;;;;5028966;28;20037;-72
2021/01/07 01:30:10;;;;;;;1.50;0.95;;;;;;;;;;5029989;28;20041;-72
2021/01/07 01:32:37;;;;;;;1.95;1.10;;;;;;;;;;5029155;28;20036;-72
2021/01/07 01:35:04;;;;;;;1.58;1.20;;;;;;;;;;5029213;28;20438;-72
2021/01/07 01:37:31;;;;;;;1.25;1.10;;;;;;;;;;5048608;28;20041;-72
2021/01/07 01:39:57;;;;;;;1.60;1.35;;;;;;;;;;5049283;28;20032;-72
2021/01/07 01:42:24;;;;;;;1.23;1.20;;;;;;;;;;5049492;28;20423;-71
2021/01/07 01:44:50;;;;;;;1.35;1.25;;;;;;;;;;5048815;28;20108;-72
2021/01/07 01:47:17;;;;;;;2.28;1.70;;;;;;;;;;5049584;28;20029;-72
2021/01/07 01:49:43;;;;;;;1.75;1.65;;;;;;;;;;5048781;28;20546;-72
2021/01/07 01:52:09;;;;;;;2.25;1.42;;;;;;;;;;5049526;28;20036;-72
2021/01/07 01:54:36;;;;;;;1.25;1.13;;;;;;;;;;5049030;28;20439;-72
2021/01/07 01:57:03;;;;;;;2.33;1.52;;;;;;;;;;5049141;28;20119;-72
2021/01/07 01:59:30;;;;;;;1.13;0.98;;;;;;;;;;5049668;28;20025;-72
2021/01/07 02:02:02;;;;;;;1.70;1.23;;;;;;;;;;5048450;28;20076;-72
2021/01/07 02:04:28;;;;;;;1.90;1.50;;;;;;;;;;5049459;28;20033;-72
2021/01/07 02:06:54;;;;;;;1.38;1.27;;;;;;;;;;5048167;28;20102;-72
2021/01/07 02:09:21;;;;;;;2.42;1.67;;;;;;;;;;5049526;28;20524;-72
2021/01/07 02:11:48;;;;;;;1.23;1.13;;;;;;;;;;5049361;28;20112;-72
2021/01/07 02:14:14;;;;;;;1.40;1.17;;;;;;;;;;5052775;28;20036;-72
2021/01/07 02:16:40;;;;;;;1.88;1.63;;;;;;;;;;5052460;28;20078;-72
2021/01/07 02:19:06;;;;;;;1.30;1.15;;;;;;;;;;5053172;28;20029;-72
2021/01/07 02:21:39;;;;;;;2.70;1.52;;;;;;;;;;5052809;28;20033;-73
2021/01/07 02:24:05;;;;;;;1.55;1.30;;;;;;;;;;5052363;28;20360;-72
2021/01/07 02:26:31;;;;;;;1.33;1.20;;;;;;;;;;5052889;28;20029;-72
2021/01/07 02:28:57;;;;;;;1.70;1.60;;;;;;;;;;5052140;28;20036;-72
2021/01/07 02:31:23;;;;;;;1.80;1.13;;;;;;;;;;5052924;28;20025;-72
2021/01/07 02:33:49;;;;;;;2.88;2.22;;;;;;;;;;5052088;28;20033;-72
2021/01/07 02:36:15;;;;;;;1.92;1.55;;;;;;;;;;5051756;28;20384;-72
2021/01/07 02:38:41;;;;;;;1.92;1.65;;;;;;;;;;5052092;28;20025;-72
2021/01/07 02:41:08;;;;;;;1.33;1.00;;;;;;;;;;5052912;28;20025;-72
2021/01/07 02:43:34;;;;;;;2.03;1.45;;;;;;;;;;5052144;28;20112;-72
2021/01/07 02:46:00;;;;;;;1.92;1.50;;;;;;;;;;5052223;28;20559;-72
2021/01/07 02:48:26;;;;;;;1.90;1.70;;;;;;;;;;5052284;28;20090;-72
2021/01/07 02:50:52;;;;;;;2.17;1.98;;;;;;;;;;5051954;28;20055;-72
2021/01/07 02:53:18;;;;;;;2.15;1.02;;;;;;;;;;5052090;28;20057;-72
2021/01/07 02:55:44;;;;;;;4.53;1.60;;;;;;;;;;5051214;28;20028;-72
2021/01/07 02:58:10;;;;;;;1.25;1.20;;;;;;;;;;5052309;28;20093;-72
2021/01/07 03:00:36;;;;;;;1.75;1.10;;;;;;;;;;5051769;28;20033;-72
2021/01/07 03:03:03;;;;;;;2.28;2.00;;;;;;;;;;5051609;28;20037;-72
2021/01/07 03:05:29;;;;;;;2.13;1.35;;;;;;;;;;5051546;28;20388;-72
2021/01/07 03:07:55;;;;;;;2.60;2.17;;;;;;;;;;5050920;28;20033;-72
2021/01/07 03:10:21;;;;;;;2.55;1.20;;;;;;;;;;5052044;28;20036;-72
2021/01/07 03:12:47;;;;;;;1.67;1.55;;;;;;;;;;5033052;28;20428;-72
2021/01/07 03:15:13;;;;;;;1.60;1.23;;;;;;;;;;5046051;28;20029;-72
2021/01/07 03:17:39;;;;;;;1.70;1.10;;;;;;;;;;5026762;28;20030;-72
2021/01/07 03:20:15;;;;;;;0.90;0.90;;;;;;;;;;5026730;28;20026;-73
2021/01/07 03:22:41;;;;;;;1.33;1.08;;;;;;;;;;5027611;28;20577;-72
2021/01/07 03:25:11;;;;;;;3.08;1.65;;;;;;;;;;5028415;28;20032;-73
2021/01/07 03:27:38;;;;;;;1.15;1.05;;;;;;;;;;5029005;28;20502;-72
2021/01/07 03:30:06;;;;;;;0.80;0.80;;;;;;;;;;5029771;28;20364;-72
2021/01/07 03:32:32;;;;;;;1.30;1.20;;;;;;;;;;5029192;28;20043;-72
2021/01/07 03:34:58;;;;;;;1.30;0.93;;;;;;;;;;5028120;28;20495;-72
2021/01/07 03:37:24;;;;;;;1.00;0.90;;;;;;;;;;5029421;28;20412;-72
2021/01/07 03:39:50;;;;;;;1.13;1.10;;;;;;;;;;5048583;28;20115;-72
2021/01/07 03:42:16;;;;;;;1.48;0.85;;;;;;;;;;5048812;28;20032;-72
2021/01/07 03:44:42;;;;;;;1.35;1.25;;;;;;;;;;5048084;28;20557;-72
2021/01/07 03:47:08;;;;;;;1.92;0.80;;;;;;;;;;5049189;28;20029;-72
2021/01/07 03:49:34;;;;;;;0.98;0.88;;;;;;;;;;5048647;28;20032;-72
2021/01/07 03:52:00;;;;;;;0.50;0.50;;;;;;;;;;5047928;28;20538;-72
2021/01/07 03:54:26;;;;;;;1.42;1.10;;;;;;;;;;5048584;28;20047;-72
2021/01/07 03:56:53;;;;;;;1.42;1.20;;;;;;;;;;5047895;28;20059;-72
2021/01/07 03:59:19;;;;;;;1.60;0.70;;;;;;;;;;5049045;28;20052;-72
2021/01/07 04:01:45;;;;;;;1.33;1.20;;;;;;;;;;5048062;28;20032;-72
2021/01/07 04:04:11;;;;;;;1.83;1.67;;;;;;;;;;5048523;28;20636;-72
2021/01/07 04:06:37;;;;;;;1.05;0.75;;;;;;;;;;5047098;28;20500;-72
2021/01/07 04:09:04;;;;;;;1.02;0.98;;;;;;;;;;5048832;28;20067;-72
2021/01/07 04:11:30;;;;;;;1.17;0.88;;;;;;;;;;5048339;28;20383;-72
2021/01/07 04:13:56;;;;;;;0.70;0.70;;;;;;;;;;5046962;28;20112;-72
2021/01/07 04:16:22;;;;;;;1.05;0.90;;;;;;;;;;5048565;28;20029;-72
2021/01/07 04:18:48;;;;;;;1.02;0.93;;;;;;;;;;5047893;28;20070;-72
2021/01/07 04:21:17;;;;;;;0.70;0.70;;;;;;;;;;5047637;28;20029;-72
2021/01/07 04:23:43;;;;;;;1.13;0.80;;;;;;;;;;5046354;28;20584;-72
2021/01/07 04:26:10;;;;;;;0.60;0.60;;;;;;;;;;5048254;28;20131;-72
2021/01/07 04:28:36;;;;;;;1.33;0.98;;;;;;;;;;5048039;28;20086;-73
2021/01/07 04:31:02;;;;;;;0.65;0.65;;;;;;;;;;5048044;28;20404;-72
2021/01/07 04:33:28;;;;;;;0.50;0.50;;;;;;;;;;5046662;28;20100;-72
2021/01/07 04:35:54;;;;;;;0.70;0.70;;;;;;;;;;5044974;28;20551;-72
2021/01/07 04:38:20;;;;;;;0.75;0.63;;;;;;;;;;5030733;28;20111;-72
2021/01/07 04:40:46;;;;;;;1.13;0.70;;;;;;;;;;5047213;28;20044;-72
2021/01/07 04:43:12;;;;;;;1.35;0.75;;;;;;;;;;5046860;28;20097;-72
2021/01/07 04:45:38;;;;;;;1.08;0.77;;;;;;;;;;5046890;28;20029;-72
2021/01/07 04:48:06;;;;;;;0.77;0.73;;;;;;;;;;5047677;28;20047;-72
2021/01/07 04:50:32;;;;;;;0.90;0.70;;;;;;;;;;5047805;28;20032;-72
2021/01/07 04:52:58;;;;;;;1.75;1.65;;;;;;;;;;5046599;28;20032;-72
2021/01/07 04:55:24;;;;;;;0.70;0.50;;;;;;;;;;5047712;28;20104;-72
2021/01/07 04:57:50;;;;;;;0.73;0.52;;;;;;;;;;5047347;28;20029;-72
2021/01/07 05:00:16;;;;;;;0.80;0.80;;;;;;;;;;5047669;28;20040;-72
2021/01/07 05:02:43;;;;;;;0.85;0.80;;;;;;;;;;5046059;28;20052;-72
2021/01/07 05:05:09;;;;;;;0.65;0.47;;;;;;;;;;5046093;28;20021;-72
2021/01/07 05:07:39;;;;;;;0.60;0.60;;;;;;;;;;5047773;28;20021;-72
2021/01/07 05:10:08;;;;;;;0.63;0.63;;;;;;;;;;5047660;28;20025;-72
2021/01/07 05:12:35;;;;;;;0.75;0.73;;;;;;;;;;5046617;28;20021;-72
2021/01/07 05:15:01;;;;;;;0.50;0.50;;;;;;;;;;5047033;28;20037;-72
2021/01/07 05:17:27;;;;;;;1.08;0.68;;;;;;;;;;5047148;28;20029;-72
2021/01/07 05:19:54;;;;;;;1.10;1.08;;;;;;;;;;5046985;28;20874;-72
2021/01/07 05:22:27;;;;;;;0.52;0.50;;;;;;;;;;5046295;28;20040;-72
2021/01/07 05:24:54;;;;;;;0.73;0.60;;;;;;;;;;5046914;28;20037;-72
2021/01/07 05:27:22;;;;;;;1.10;0.60;;;;;;;;;;5047641;28;20033;-72
2021/01/07 05:29:49;;;;;;;0.75;0.75;;;;;;;;;;5046793;28;20028;-72
2021/01/07 05:32:15;;;;;;;0.52;0.52;;;;;;;;;;5046631;28;20017;-72
2021/01/07 05:34:51;;;;;;;0.75;0.50;;;;;;;;;;5045796;28;20102;-72
2021/01/07 05:37:18;;;;;;;0.75;0.75;;;;;;;;;;5029789;28;20466;-72
2021/01/07 05:39:45;;;;;;;1.15;0.77;;;;;;;;;;5026458;28;20099;-72
2021/01/07 05:42:11;;;;;;;0.45;0.40;;;;;;;;;;5026896;28;20033;-72
2021/01/07 05:44:41;;;;;;;0.40;0.40;;;;;;;;;;5025996;28;20455;-72
2021/01/07 05:47:07;;;;;;;0.80;0.80;;;;;;;;;;5028700;28;20541;-72
2021/01/07 05:49:37;;;;;;;0.50;0.50;;;;;;;;;;5030743;28;20025;-73
2021/01/07 05:52:09;;;;;;;0.73;0.73;;;;;;;;;;5030395;28;20041;-72
2021/01/07 05:54:35;;;;;;;1.25;0.55;;;;;;;;;;5030051;28;20018;-72
2021/01/07 05:57:03;;;;;;;0.80;0.40;;;;;;;;;;5031122;28;20462;-72
2021/01/07 05:59:31;;;;;;;0.50;0.50;;;;;;;;;;5031531;28;20029;-72
2021/01/07 06:01:59;;;;;;;0.40;0.40;;;;;;;;;;5030366;28;20136;-72
2021/01/07 06:04:26;;;;;;;0.50;0.38;;;;;;;;;;5030122;28;20667;-72
2021/01/07 06:06:52;;;;;;;0.70;0.70;;;;;;;;;;5029438;28;20169;-72
2021/01/07 06:09:18;;;;;;;1.65;1.25;;;;;;;;;;5031117;28;20500;-72
2021/01/07 06:11:44;;;;;;;0.60;0.52;;;;;;;;;;5030411;28;20334;-72
2021/01/07 06:14:10;;;;;;;0.30;0.30;;;;;;;;;;5029625;28;20050;-72
2021/01/07 06:16:42;;;;;;;0.35;0.35;;;;;;;;;;5030422;28;20021;-72
2021/01/07 06:19:27;;;;;;;0.30;0.30;;;;;;;;;;5031003;28;20032;-73
2021/01/07 06:21:55;;;;;;;0.40;0.40;;;;;;;;;;5029083;28;20073;-72
2021/01/07 06:24:25;;;;;;;0.30;0.30;;;;;;;;;;5029721;28;20053;-72
2021/01/07 06:26:51;;;;;;;0.40;0.30;;;;;;;;;;5030325;28;20029;-72
2021/01/07 06:29:17;;;;;;;0.70;0.70;;;;;;;;;;5030273;28;20030;-72
2021/01/07 06:31:43;;;;;;;0.52;0.50;;;;;;;;;;5029558;28;20032;-72
2021/01/07 06:34:13;;;;;;;0.57;0.52;;;;;;;;;;5029000;28;20040;-72
2021/01/07 06:36:46;;;;;;;0.95;0.73;;;;;;;;;;5040252;28;20112;-72
2021/01/07 06:39:12;;;;;;;0.77;0.77;;;;;;;;;;5050672;28;20065;-72
2021/01/07 06:41:38;;;;;;;0.50;0.43;;;;;;;;;;5049306;28;20723;-72
2021/01/07 06:44:05;;;;;;;0.30;0.30;;;;;;;;;;5048819;28;20086;-72
2021/01/07 06:46:44;;;;;;;0.28;0.28;;;;;;;;;;5050161;28;20094;-72
2021/01/07 06:49:19;;;;;;;0.75;0.40;;;;;;;;;;5049977;28;20095;-72
2021/01/07 06:51:52;;;;;;;0.80;0.80;;;;;;;;;;5052461;28;20036;-72
2021/01/07 06:54:19;;;;;;;0.73;0.47;;;;;;;;;;5036736;28;20024;-72
2021/01/07 06:56:45;;;;;;;1.23;1.00;;;;;;;;;;5026396;28;20025;-72
2021/01/07 06:59:13;;;;;;;0.40;0.40;;;;;;;;;;5026528;28;20029;-72
2021/01/07 07:01:50;;;;;;;0.57;0.55;;;;;;;;;;5043365;28;20061;-71
2021/01/07 07:04:32;;;;;;;1.13;0.75;;;;;;;;;;5034696;28;20487;-72
2021/01/07 07:06:58;;;;;;;1.23;1.00;;;;;;;;;;5040027;28;20055;-72
2021/01/07 07:09:25;;;;;;;0.77;0.63;;;;;;;;;;5023573;28;20039;-72
2021/01/07 07:11:52;;;;;;;0.80;0.80;;;;;;;;;;5036098;28;20025;-72
2021/01/07 07:14:19;;;;;;;1.05;1.05;;;;;;;;;;5023993;28;20033;-72
2021/01/07 07:16:47;;;;;;;4.32;1.25;;;;;;;;;;5033067;28;20037;-71
2021/01/07 07:19:26;;;;;;;1.30;0.50;;;;;;;;;;5028056;28;20018;-71
2021/01/07 07:21:56;;;;;;;0.77;0.77;;;;;;;;;;5023558;28;20676;-71
2021/01/07 07:24:30;;;;;;;0.50;0.50;;;;;;;;;;5026073;28;20033;-71
2021/01/07 07:26:56;;;;;;;;;;;;;;;;;;5042427;28;20244;-71
2021/01/07 07:29:22;;;;;;;2.63;1.70;;;;;;;;;;5048637;28;19947;-72
2021/01/07 07:31:49;;;;;;;0.77;0.75;;;;;;;;;;5060756;28;20031;-71
2021/01/07 07:34:16;;;;;;;2.30;0.90;;;;;;;;;;5043527;28;20025;-72
2021/01/07 07:36:43;;;;;;;1.00;1.00;;;;;;;;;;5058791;28;20058;-72
2021/01/07 07:39:09;;;;;;;1.23;1.13;;;;;;;;;;5068672;28;20122;-72
2021/01/07 07:41:43;;;;;;;1.00;0.90;;;;;;;;;;5065454;28;20080;-72
2021/01/07 07:44:10;;;;;;;2.42;0.82;;;;;;;;;;5076390;28;20092;-72
2021/01/07 07:46:37;;;;;;;1.30;1.17;;;;;;;;;;5056665;28;20024;-72
2021/01/07 07:49:04;;;;;;;1.33;1.13;;;;;;;;;;5064951;28;20025;-72
2021/01/07 07:51:30;;;;;;;2.45;1.20;;;;;;;;;;5064646;28;20058;-73
2021/01/07 07:54:03;;;;;;;3.92;1.30;;;;;;;;;;5064768;28;20043;-73
2021/01/07 07:56:29;;;;;;;2.22;1.58;;;;;;;;;;5067478;28;20024;-72
2021/01/07 07:58:59;;;;;;;1.50;1.40;;;;;;;;;;5067277;28;20708;-72
2021/01/07 08:01:38;;;;;;;2.03;1.80;;;;;;;;;;5066840;28;20526;-72
2021/01/07 08:04:04;;;;;;;1.10;1.10;;;;;;;;;;5057333;28;20456;-74
2021/01/07 08:06:30;;;;;;;2.80;2.40;;;;;;;;;;5050762;28;20071;-72
2021/01/07 08:09:06;;;;;;;1.27;1.17;;;;;;;;;;5041939;28;20033;-72
2021/01/07 08:11:33;;;;;;;1.90;1.75;;;;;;;;;;5052247;28;20028;-72
2021/01/07 08:14:00;;;;;;;2.83;1.90;;;;;;;;;;5052350;28;20619;-72
2021/01/07 08:16:26;;;;;;;3.03;1.70;;;;;;;;;;5053324;28;20122;-72
2021/01/07 08:18:52;;;;;;;1.50;1.27;;;;;;;;;;5049018;28;20043;-72
2021/01/07 08:21:18;;;;;;;1.80;1.15;;;;;;;;;;5052147;28;20040;-72
2021/01/07 08:23:45;;;;;;;2.08;1.45;;;;;;;;;;5050543;28;20036;-69
2021/01/07 08:26:20;;;;;;;2.55;1.77;;;;;;;;;;5053659;28;20083;-72
2021/01/07 08:28:46;;;;;;;1.55;1.45;;;;;;;;;;5047719;28;20446;-72
2021/01/07 08:31:14;;;;;;;1.70;1.60;;;;;;;;;;5052581;28;20029;-72
2021/01/07 08:33:40;;;;;;;1.02;1.02;;;;;;;;;;5055281;28;20168;-75
2021/01/07 08:36:11;;;;;;;2.08;1.77;;;;;;;;;;5049975;28;20102;-71
2021/01/07 08:38:37;;;;;;;1.33;1.23;;;;;;;;;;5050857;28;20075;-70
2021/01/07 08:41:12;;;;;;;2.33;1.65;;;;;;;;;;5053354;28;20029;-71
2021/01/07 08:43:39;;;;;;;1.42;1.13;;;;;;;;;;5048487;28;20487;-72
2021/01/07 08:46:15;;;;;;;1.60;1.50;;;;;;;;;;5051872;28;20463;-72
2021/01/07 08:48:41;;;;;;;1.60;1.50;;;;;;;;;;5047560;28;20457;-72
2021/01/07 08:51:20;;;;;;;2.10;1.90;;;;;;;;;;5053541;28;20116;-72
2021/01/07 08:53:47;;;;;;;1.50;1.40;;;;;;;;;;5050232;28;20108;-72
2021/01/07 08:56:28;;;;;;;1.90;1.73;;;;;;;;;;5048543;28;20040;-73
2021/01/07 08:59:14;;;;;;;2.72;2.22;;;;;;;;;;5047961;28;20102;-72
2021/01/07 09:01:40;;;;;;;2.85;2.05;;;;;;;;;;5047662;28;20056;-71
2021/01/07 09:04:21;;;;;;;3.70;3.08;;;;;;;;;;5048716;28;20035;-71
2021/01/07 09:06:59;;;;;;;2.30;2.10;;;;;;;;;;5054387;28;20553;-72
2021/01/07 09:09:37;;;;;;;5.15;2.47;;;;;;;;;;5050797;28;20051;-72
2021/01/07 09:12:16;;;;;;;2.40;2.20;;;;;;;;;;5050747;28;20129;-73
2021/01/07 09:14:43;;;;;;;2.63;1.98;;;;;;;;;;5048177;28;20126;-75
2021/01/07 09:17:09;;;;;;;3.72;2.97;;;;;;;;;;5050479;28;20020;-72
2021/01/07 09:19:35;;;;;;;2.80;2.40;;;;;;;;;;5048913;28;20075;-72
2021/01/07 09:22:01;;;;;;;3.70;3.15;;;;;;;;;;5050464;28;20187;-73
2021/01/07 09:24:35;;;;;;;3.88;2.40;;;;;;;;;;5053844;28;20025;-73
2021/01/07 09:27:01;;;;;;;;;;;;;;;;;;5054578;28;20045;-73
2021/01/07 09:29:27;;;;;;;2.88;2.58;;;;;;;;;;5046823;28;19935;-72
2021/01/07 09:31:53;;;;;;;3.53;2.88;;;;;;;;;;5051824;28;20048;-72
2021/01/07 09:34:19;;;;;;;3.55;2.58;;;;;;;;;;5048565;28;20033;-72
2021/01/07 09:36:45;;;;;;;2.20;1.95;;;;;;;;;;5055583;28;20056;-72
2021/01/07 09:39:11;;;;;;;3.00;2.53;;;;;;;;;;5051524;28;20048;-73
2021/01/07 09:41:37;;;;;;;3.17;2.67;;;;;;;;;;5053882;28;20237;-72
2021/01/07 09:44:07;;;;;;;2.88;2.53;;;;;;;;;;5054068;28;20041;-72
2021/01/07 09:46:33;;;;;;;2.63;2.42;;;;;;;;;;5052181;28;20028;-73
2021/01/07 09:48:59;;;;;;;3.63;2.38;;;;;;;;;;5051740;28;20041;-72
2021/01/07 09:51:25;;;;;;;3.65;1.77;;;;;;;;;;5049089;28;20441;-73
2021/01/07 09:53:51;;;;;;;2.55;2.17;;;;;;;;;;5052777;28;20033;-72
2021/01/07 09:56:17;;;;;;;2.20;2.00;;;;;;;;;;5054134;28;20069;-72
2021/01/07 09:58:43;;;;;;;2.47;2.28;;;;;;;;;;5054362;28;20033;-72
2021/01/07 10:01:10;;;;;;;3.15;2.20;;;;;;;;;;5054019;28;20048;-71
2021/01/07 10:03:36;;;;;;;2.65;2.08;;;;;;;;;;5052718;28;20036;-71
2021/01/07 10:06:05;;;;;;;4.15;2.60;;;;;;;;;;5045549;28;20039;-72
2021/01/07 10:08:32;;;;;;;5.05;2.92;;;;;;;;;;5039320;28;20075;-72
2021/01/07 10:10:58;;;;;;;3.17;2.67;;;;;;;;;;5045977;28;20036;-72
2021/01/07 10:13:24;;;;;;;8.60;2.53;;;;;;;;;;5054896;28;20036;-72
2021/01/07 10:15:50;;;;;;;2.88;2.38;;;;;;;;;;5044638;28;20573;-72
2021/01/07 10:18:16;;;;;;;4.22;2.25;;;;;;;;;;5048960;28;21418;-71
2021/01/07 10:20:42;;;;;;;4.50;2.20;;;;;;;;;;5049461;28;20029;-71
2021/01/07 10:23:11;;;;;;;4.53;2.38;;;;;;;;;;5048791;28;20458;-72
2021/01/07 10:25:37;;;;;;;2.15;1.92;;;;;;;;;;5044971;28;20036;-72
2021/01/07 10:28:03;;;;;;;3.03;2.25;;;;;;;;;;5046001;28;20034;-71
2021/01/07 10:30:29;;;;;;;2.60;2.10;;;;;;;;;;5048717;28;20432;-72
2021/01/07 10:32:56;;;;;;;2.88;2.25;;;;;;;;;;5048652;28;20033;-72
2021/01/07 10:35:22;;;;;;;3.05;2.42;;;;;;;;;;5054171;28;20025;-72
2021/01/07 10:37:58;;;;;;;3.25;2.03;;;;;;;;;;5054101;28;20021;-72
2021/01/07 10:40:25;;;;;;;3.28;2.38;;;;;;;;;;5064833;28;20044;-72
2021/01/07 10:42:51;;;;;;;2.45;2.00;;;;;;;;;;5070021;28;20048;-72
2021/01/07 10:45:18;;;;;;;2.60;2.08;;;;;;;;;;5069384;28;20060;-72
2021/01/07 10:47:47;;;;;;;2.65;2.45;;;;;;;;;;5060124;28;20025;-72
2021/01/07 10:50:15;;;;;;;2.22;2.03;;;;;;;;;;5064143;28;20389;-72
2021/01/07 10:52:44;;;;;;;2.88;1.90;;;;;;;;;;5051066;28;20090;-72
2021/01/07 10:55:16;;;;;;;4.47;2.20;;;;;;;;;;5052299;28;20062;-72
2021/01/07 10:57:51;;;;;;;3.97;2.33;;;;;;;;;;5054296;28;20040;-72
2021/01/07 11:00:17;;;;;;;6.45;2.72;;;;;;;;;;5051897;28;20053;-72
2021/01/07 11:03:02;;;;;;;3.55;3.25;;;;;;;;;;5055498;28;20037;-72
2021/01/07 11:05:33;;;;;;;4.93;2.63;;;;;;;;;;5050937;28;20109;-73
2021/01/07 11:08:02;;;;;;;2.75;2.25;;;;;;;;;;5052541;28;20138;-73
2021/01/07 11:10:31;;;;;;;6.07;3.42;;;;;;;;;;5051166;28;20039;-77
2021/01/07 11:13:03;;;;;;;4.30;3.22;;;;;;;;;;5053153;28;20024;-72
2021/01/07 11:15:30;;;;;;;3.33;2.55;;;;;;;;;;5051263;28;20048;-72
2021/01/07 11:17:58;;;;;;;2.85;2.65;;;;;;;;;;5053020;28;20024;-72
2021/01/07 11:20:26;;;;;;;4.35;3.00;;;;;;;;;;5052342;28;20036;-72
2021/01/07 11:22:53;;;;;;;4.10;2.60;;;;;;;;;;5049331;28;20491;-71
2021/01/07 11:25:20;;;;;;;6.07;4.35;;;;;;;;;;5056668;28;20031;-71
2021/01/07 11:27:47;;;;;;;3.00;2.58;;;;;;;;;;5049616;28;20032;-73
2021/01/07 11:30:14;;;;;;;3.17;2.85;;;;;;;;;;5049465;28;20037;-72
2021/01/07 11:32:40;;;;;;;3.78;2.55;;;;;;;;;;5050468;28;20040;-72
2021/01/07 11:35:09;;;;;;;3.58;2.90;;;;;;;;;;5055668;28;20021;-72
2021/01/07 11:37:38;;;;;;;9.57;2.92;;;;;;;;;;5053787;28;20132;-73
2021/01/07 11:40:08;;;;;;;6.05;3.47;;;;;;;;;;5050268;28;20029;-73
2021/01/07 11:42:37;;;;;;;3.47;3.15;;;;;;;;;;5054017;28;20032;-73
2021/01/07 11:45:04;;;;;;;7.18;3.58;;;;;;;;;;5054507;28;20033;-72
2021/01/07 11:47:35;;;;;;;3.65;3.30;;;;;;;;;;5049600;28;20434;-72
2021/01/07 11:50:04;;;;;;;5.88;3.95;;;;;;;;;;5050825;28;20064;-72
2021/01/07 11:52:30;;;;;;;3.13;2.88;;;;;;;;;;5057546;28;20032;-73
2021/01/07 11:54:58;;;;;;;4.47;3.05;;;;;;;;;;5053948;28;20089;-73
2021/01/07 11:57:26;;;;;;;4.20;3.70;;;;;;;;;;5054448;28;20071;-73
2021/01/07 11:59:53;;;;;;;3.53;3.10;;;;;;;;;;5048647;28;20032;-72
2021/01/07 12:02:19;;;;;;;3.35;3.05;;;;;;;;;;5055816;28;20060;-72
2021/01/07 12:04:45;;;;;;;4.05;3.15;;;;;;;;;;5051982;28;20086;-72
2021/01/07 12:07:32;;;;;;;4.85;3.75;;;;;;;;;;5052092;28;20557;-73
2021/01/07 12:09:59;;;;;;;4.10;3.72;;;;;;;;;;5051061;28;20104;-73
2021/01/07 12:12:27;;;;;;;3.83;3.05;;;;;;;;;;5056891;28;20025;-73
2021/01/07 12:14:54;;;;;;;4.32;2.17;;;;;;;;;;5054223;28;20845;-72
2021/01/07 12:17:20;;;;;;;2.60;2.15;;;;;;;;;;5053022;28;20017;-73
2021/01/07 12:19:46;;;;;;;3.58;1.80;;;;;;;;;;5054770;28;20086;-72
2021/01/07 12:22:14;;;;;;;7.40;3.42;;;;;;;;;;5053332;28;20414;-72
2021/01/07 12:24:42;;;;;;;3.85;2.70;;;;;;;;;;5052997;28;20045;-73
2021/01/07 12:27:09;;;;;;;2.80;2.40;;;;;;;;;;5050836;28;20025;-72
2021/01/07 12:29:40;;;;;;;5.03;1.98;;;;;;;;;;5046511;28;20020;-72
2021/01/07 12:32:21;;;;;;;3.05;2.35;;;;;;;;;;5047678;28;20574;-72
2021/01/07 12:34:59;;;;;;;3.15;2.72;;;;;;;;;;5053377;28;20521;-72
2021/01/07 12:37:28;;;;;;;4.40;2.00;;;;;;;;;;5055715;28;20068;-71
2021/01/07 12:40:04;;;;;;;3.83;2.67;;;;;;;;;;5048330;28;20587;-70
2021/01/07 12:42:32;;;;;;;2.35;2.15;;;;;;;;;;5051868;28;20136;-71
2021/01/07 12:45:01;;;;;;;3.00;2.20;;;;;;;;;;5054767;28;20609;-71
2021/01/07 12:47:28;;;;;;;2.90;2.10;;;;;;;;;;5055791;28;20486;-72
2021/01/07 12:49:57;;;;;;;2.60;2.40;;;;;;;;;;5048428;28;20132;-73
2021/01/07 12:52:24;;;;;;;2.85;1.80;;;;;;;;;;5052197;28;20542;-72
2021/01/07 12:54:52;;;;;;;6.22;2.60;;;;;;;;;;5052545;28;20116;-72
2021/01/07 12:57:19;;;;;;;3.03;2.40;;;;;;;;;;5050173;28;20044;-72
2021/01/07 12:59:54;;;;;;;3.67;2.25;;;;;;;;;;5050014;28;20173;-72
2021/01/07 13:02:27;;;;;;;3.05;2.60;;;;;;;;;;5045145;28;20520;-72
2021/01/07 13:04:56;;;;;;;2.53;2.33;;;;;;;;;;5048172;28;20029;-72
2021/01/07 13:07:25;;;;;;;2.95;1.88;;;;;;;;;;5053454;28;20033;-72
2021/01/07 13:09:51;;;;;;;3.58;2.22;;;;;;;;;;5051049;28;20159;-71
2021/01/07 13:12:18;;;;;;;4.50;2.63;;;;;;;;;;5052469;28;20119;-72
2021/01/07 13:14:44;;;;;;;2.83;2.42;;;;;;;;;;5046857;28;20086;-71
2021/01/07 13:17:10;;;;;;;5.72;2.60;;;;;;;;;;5049189;28;20138;-73
2021/01/07 13:19:37;;;;;;;2.92;2.17;;;;;;;;;;5048389;28;20032;-72
2021/01/07 13:22:04;;;;;;;4.68;3.22;;;;;;;;;;5051504;28;20037;-72
2021/01/07 13:24:32;;;;;;;2.97;2.33;;;;;;;;;;5048371;28;20081;-71
2021/01/07 13:26:59;;;;;;;4.07;1.88;;;;;;;;;;5049711;28;20037;-73
2021/01/07 13:29:25;;;;;;;3.42;2.22;;;;;;;;;;5051000;28;20044;-73
2021/01/07 13:31:52;;;;;;;2.95;2.08;;;;;;;;;;5048268;28;20041;-72
2021/01/07 13:34:18;;;;;;;2.63;2.42;;;;;;;;;;5051583;28;20554;-72
2021/01/07 13:36:44;;;;;;;3.20;1.45;;;;;;;;;;5052510;28;20178;-72
2021/01/07 13:39:11;;;;;;;2.03;1.83;;;;;;;;;;5046116;28;20040;-72
2021/01/07 13:41:37;;;;;;;3.13;2.28;;;;;;;;;;5050606;28;20036;-72
2021/01/07 13:44:09;;;;;;;4.57;2.53;;;;;;;;;;5050397;28;20029;-72
2021/01/07 13:46:37;;;;;;;3.97;1.73;;;;;;;;;;5053347;28;20730;-73
2021/01/07 13:49:06;;;;;;;3.22;2.45;;;;;;;;;;5051733;28;20028;-73
2021/01/07 13:51:32;;;;;;;3.90;2.00;;;;;;;;;;5052248;28;20028;-72
2021/01/07 13:53:59;;;;;;;4.05;2.20;;;;;;;;;;5052715;28;20517;-72
2021/01/07 13:56:28;;;;;;;5.90;1.95;;;;;;;;;;5051750;28;20025;-73
2021/01/07 13:58:54;;;;;;;2.90;2.00;;;;;;;;;;5049067;28;20020;-72
2021/01/07 14:01:20;;;;;;;3.08;2.13;;;;;;;;;;5051725;28;20514;-71
2021/01/07 14:03:47;;;;;;;3.92;2.20;;;;;;;;;;5050670;28;20048;-73
2021/01/07 14:06:13;;;;;;;2.08;1.95;;;;;;;;;;5049891;28;20405;-71
2021/01/07 14:08:45;;;;;;;3.13;2.35;;;;;;;;;;5050582;28;20418;-71
2021/01/07 14:11:12;;;;;;;2.42;1.95;;;;;;;;;;5050006;28;20043;-71
2021/01/07 14:13:38;;;;;;;3.70;2.97;;;;;;;;;;5054152;28;20593;-71
2021/01/07 14:16:05;;;;;;;2.72;2.50;;;;;;;;;;5051281;28;20032;-72
2021/01/07 14:18:31;;;;;;;5.38;2.35;;;;;;;;;;5057410;28;20024;-72
2021/01/07 14:20:58;;;;;;;2.90;2.65;;;;;;;;;;5051228;28;20036;-71
2021/01/07 14:23:25;;;;;;;5.47;2.70;;;;;;;;;;5056602;28;20048;-71
2021/01/07 14:25:54;;;;;;;3.78;3.45;;;;;;;;;;5056152;28;20033;-71
2021/01/07 14:28:26;;;;;;;2.30;2.10;;;;;;;;;;5061594;28;20166;-72
2021/01/07 14:30:52;;;;;;;4.18;3.28;;;;;;;;;;5055275;28;20174;-71
2021/01/07 14:33:19;;;;;;;5.32;3.05;;;;;;;;;;5055094;28;20032;-71
2021/01/07 14:35:46;;;;;;;5.40;2.65;;;;;;;;;;5052068;28;20118;-72
2021/01/07 14:38:12;;;;;;;4.32;3.15;;;;;;;;;;5053493;28;20039;-71
2021/01/07 14:40:38;;;;;;;4.78;2.90;;;;;;;;;;5051799;28;20127;-72
2021/01/07 14:43:04;;;;;;;3.25;2.92;;;;;;;;;;5052043;28;20044;-72
2021/01/07 14:45:31;;;;;;;6.93;3.42;;;;;;;;;;5055363;28;20058;-72
2021/01/07 14:48:01;;;;;;;4.32;3.15;;;;;;;;;;5056148;28;20032;-75